Terminal Aerodrome Forecast
Issued by NWS

Home | Current Version | Previous Version | Text Only | Print | Product List | Glossary On
Versions: 1 2 3 4 5 6 7 8 9 10 11 12 13
786
FTAK31 PAJN 211129
TAFAWG
TAF
PAWG 211129Z 2112/2212 33006KT P6SM SCT030 BKN035
     FM211800 30005KT P6SM SKC
     FM220600 04003KT P6SM BKN120
      AMD LTD TO CLD VIS AND WIND 2112/2115=

USA.gov is the U.S. government's official web portal to all federal, state and local government web resources and services.